Time,TemperatureF,DewpointF,PressureIn,WindDirection,WindDirectionDegrees,WindSpeedMPH,WindSpeedGustMPH,Humidity,HourlyPrecipIn,Conditions,Clouds,dailyrainin,SoftwareType,DateUTC
2013-07-22 00:01:00,76.0,72.0,30.09,South,176,0.0,1.0,88,0.00,,,0.00,,2013-07-22 04:01:00,
2013-07-22 00:12:00,76.0,72.0,30.09,South,176,0.0,1.0,88,0.00,,,0.00,,2013-07-22 04:12:00,
2013-07-22 00:22:00,76.0,72.0,30.09,WSW,241,0.0,5.0,88,0.00,,,0.00,,2013-07-22 04:22:00,
2013-07-22 00:33:00,76.0,72.0,30.09,WSW,241,0.0,5.0,88,0.00,,,0.00,,2013-07-22 04:33:00,
2013-07-22 00:43:00,76.0,72.0,30.09,WSW,241,0.0,5.0,88,0.00,,,0.00,,2013-07-22 04:43:00,
2013-07-22 01:02:00,76.0,73.0,30.09,WSW,241,0.0,2.0,89,0.00,,,0.00,,2013-07-22 05:02:00,
2013-07-22 01:11:00,76.0,73.0,30.09,WSW,241,0.0,2.0,89,0.00,,,0.00,,2013-07-22 05:11:00,
2013-07-22 01:22:00,75.0,72.0,30.09,WSW,241,0.0,0.0,90,0.00,,,0.00,,2013-07-22 05:22:00,
2013-07-22 01:32:00,75.0,72.0,30.09,WSW,241,0.0,0.0,90,0.00,,,0.00,,2013-07-22 05:32:00,
2013-07-22 01:43:00,75.0,72.0,30.09,WSW,241,0.0,0.0,90,0.00,,,0.00,,2013-07-22 05:43:00,
2013-07-22 01:52:00,75.0,72.0,30.07,WSW,243,0.0,3.0,91,0.00,,,0.00,,2013-07-22 05:52:00,
2013-07-22 02:01:00,75.0,72.0,30.07,WSW,243,0.0,3.0,91,0.00,,,0.00,,2013-07-22 06:01:00,
2013-07-22 02:11:00,75.0,72.0,30.07,WSW,243,0.0,3.0,91,0.00,,,0.00,,2013-07-22 06:11:00,
2013-07-22 02:22:00,75.0,72.0,30.07,WSW,247,0.0,2.0,91,0.00,,,0.00,,2013-07-22 06:22:00,
2013-07-22 02:31:00,75.0,72.0,30.06,WSW,247,0.0,0.0,91,0.00,,,0.00,,2013-07-22 06:31:00,
2013-07-22 02:33:00,75.0,72.0,30.07,WSW,247,0.0,2.0,91,0.00,,,0.00,,2013-07-22 06:33:00,
2013-07-22 02:43:00,75.0,72.0,30.07,WSW,247,0.0,2.0,91,0.00,,,0.00,,2013-07-22 06:43:00,
2013-07-22 02:52:00,75.0,72.0,30.06,WSW,247,0.0,0.0,91,0.00,,,0.00,,2013-07-22 06:52:00,
2013-07-22 03:01:00,75.0,72.0,30.06,WSW,247,0.0,0.0,91,0.00,,,0.00,,2013-07-22 07:01:00,
2013-07-22 03:12:00,75.0,72.0,30.06,WSW,247,0.0,0.0,91,0.00,,,0.00,,2013-07-22 07:12:00,
2013-07-22 03:22:00,75.0,72.0,30.06,WSW,247,0.0,0.0,91,0.00,,,0.00,,2013-07-22 07:22:00,
2013-07-22 13:52:00,90.0,74.0,30.06,WSW,254,2.0,8.0,60,0.00,,,0.00,,2013-07-22 17:52:00,
2013-07-22 14:05:00,90.0,74.0,30.06,WSW,254,2.0,8.0,60,0.00,,,0.00,,2013-07-22 18:05:00,
2013-07-22 14:16:00,90.0,74.0,30.06,WSW,254,2.0,8.0,60,0.00,,,0.00,,2013-07-22 18:16:00,
2013-07-22 14:27:00,91.0,76.0,30.06,SSW,213,1.0,7.0,61,0.00,,,0.00,,2013-07-22 18:27:00,
2013-07-22 14:38:00,91.0,76.0,30.06,SSW,213,1.0,7.0,61,0.00,,,0.00,,2013-07-22 18:38:00,
2013-07-22 14:59:00,92.0,73.0,30.06,SW,226,2.0,7.0,55,0.00,,,0.00,,2013-07-22 18:59:00,
2013-07-22 15:05:00,92.0,73.0,30.06,SW,226,2.0,7.0,55,0.00,,,0.00,,2013-07-22 19:05:00,
2013-07-22 15:16:00,92.0,73.0,30.06,SW,226,2.0,7.0,55,0.00,,,0.00,,2013-07-22 19:16:00,
2013-07-22 15:25:00,92.0,75.0,30.04,South,186,0.0,6.0,57,0.00,,,0.00,,2013-07-22 19:25:00,
2013-07-22 15:36:00,92.0,75.0,30.04,South,186,0.0,6.0,57,0.00,,,0.00,,2013-07-22 19:36:00,
2013-07-22 15:47:00,92.0,75.0,30.04,South,186,0.0,6.0,57,0.00,,,0.00,,2013-07-22 19:47:00,
2013-07-22 15:55:00,84.0,76.0,30.05,West,264,6.0,13.0,76,0.00,,,0.00,,2013-07-22 19:55:00,
2013-07-22 16:01:00,78.0,74.0,30.07,SW,232,0.0,0.0,89,0.03,,,0.03,,2013-07-22 20:01:00,
2013-07-22 16:04:00,84.0,76.0,30.05,West,264,6.0,13.0,76,0.00,,,0.00,,2013-07-22 20:04:00,
2013-07-22 16:16:00,84.0,76.0,30.05,West,264,6.0,13.0,76,0.00,,,0.00,,2013-07-22 20:16:00,
2013-07-22 16:22:00,78.0,74.0,30.07,SW,232,0.0,0.0,89,0.03,,,0.03,,2013-07-22 20:22:00,
2013-07-22 16:32:00,78.0,74.0,30.07,SW,232,0.0,0.0,89,0.03,,,0.03,,2013-07-22 20:32:00,
2013-07-22 16:43:00,78.0,74.0,30.07,SW,232,0.0,0.0,89,0.03,,,0.03,,2013-07-22 20:43:00,
2013-07-22 16:52:00,78.0,74.0,30.07,SW,232,0.0,0.0,89,0.03,,,0.03,,2013-07-22 20:52:00,
2013-07-22 18:32:00,80.0,75.0,30.06,WSW,256,2.0,4.0,85,0.00,,,0.03,,2013-07-22 22:32:00,
2013-07-22 18:43:00,80.0,75.0,30.06,WSW,256,2.0,4.0,85,0.00,,,0.03,,2013-07-22 22:43:00,
2013-07-22 18:52:00,77.0,74.0,30.06,NW,308,0.0,6.0,89,0.01,,,0.04,,2013-07-22 22:52:00,
2013-07-22 19:01:00,77.0,74.0,30.06,NW,308,0.0,6.0,89,0.01,,,0.04,,2013-07-22 23:01:00,
2013-07-22 19:11:00,77.0,74.0,30.06,NW,308,0.0,6.0,89,0.01,,,0.04,,2013-07-22 23:11:00,
2013-07-22 19:22:00,76.0,74.0,30.06,WSW,256,0.0,0.0,92,0.01,,,0.04,,2013-07-22 23:22:00,
2013-07-22 19:32:00,76.0,74.0,30.06,WSW,256,0.0,0.0,92,0.01,,,0.04,,2013-07-22 23:32:00,
2013-07-22 19:43:00,76.0,74.0,30.06,WSW,256,0.0,0.0,92,0.01,,,0.04,,2013-07-22 23:43:00,
2013-07-22 19:52:00,77.0,75.0,30.06,SSW,198,0.0,0.0,93,0.00,,,0.04,,2013-07-22 23:52:00,
2013-07-22 20:01:00,77.0,75.0,30.06,SSW,198,0.0,0.0,93,0.00,,,0.04,,2013-07-23 00:01:00,
2013-07-22 20:12:00,77.0,75.0,30.06,SSW,198,0.0,0.0,93,0.00,,,0.04,,2013-07-23 00:12:00,
2013-07-22 20:22:00,77.0,75.0,30.06,SSW,198,0.0,2.0,93,0.00,,,0.04,,2013-07-23 00:22:00,
2013-07-22 20:32:00,77.0,75.0,30.06,SSW,198,0.0,2.0,93,0.00,,,0.04,,2013-07-23 00:32:00,
2013-07-22 20:43:00,77.0,75.0,30.06,SSW,198,0.0,2.0,93,0.00,,,0.04,,2013-07-23 00:43:00,
2013-07-22 20:52:00,76.0,74.0,30.04,SSW,198,0.0,0.0,93,0.00,,,0.04,,2013-07-23 00:52:00,
2013-07-22 21:01:00,76.0,74.0,30.04,SSW,198,0.0,0.0,93,0.00,,,0.04,,2013-07-23 01:01:00,
2013-07-22 21:11:00,76.0,74.0,30.04,SSW,198,0.0,0.0,93,0.00,,,0.04,,2013-07-23 01:11:00,
2013-07-22 21:22:00,76.0,74.0,30.04,SSW,198,0.0,0.0,93,0.00,,,0.04,,2013-07-23 01:22:00,
2013-07-22 21:32:00,76.0,74.0,30.04,SSW,198,0.0,0.0,93,0.00,,,0.04,,2013-07-23 01:32:00,
2013-07-22 21:43:00,76.0,74.0,30.04,SSW,198,0.0,0.0,93,0.00,,,0.04,,2013-07-23 01:43:00,
2013-07-22 21:53:00,76.0,74.0,30.05,SSW,198,0.0,0.0,93,0.00,,,0.04,,2013-07-23 01:53:00,
2013-07-22 22:02:00,76.0,74.0,30.05,SSW,198,0.0,0.0,93,0.00,,,0.04,,2013-07-23 02:02:00,
2013-07-22 22:11:00,76.0,74.0,30.05,SSW,198,0.0,0.0,93,0.00,,,0.04,,2013-07-23 02:11:00,
2013-07-22 22:22:00,76.0,74.0,30.06,SSW,198,0.0,0.0,93,0.00,,,0.04,,2013-07-23 02:22:00,
2013-07-22 22:33:00,76.0,74.0,30.06,SSW,198,0.0,0.0,93,0.00,,,0.04,,2013-07-23 02:33:00,
2013-07-22 22:43:00,76.0,74.0,30.06,SSW,198,0.0,0.0,93,0.00,,,0.04,,2013-07-23 02:43:00,
2013-07-22 22:53:00,76.0,74.0,30.07,SSW,198,0.0,0.0,94,0.00,,,0.04,,2013-07-23 02:53:00,
2013-07-22 23:02:00,76.0,74.0,30.07,SSW,198,0.0,0.0,94,0.00,,,0.04,,2013-07-23 03:02:00,
2013-07-22 23:11:00,76.0,74.0,30.07,SSW,198,0.0,0.0,94,0.00,,,0.04,,2013-07-23 03:11:00,
2013-07-22 23:33:00,76.0,74.0,30.07,SSW,198,0.0,0.0,94,0.00,,,0.04,,2013-07-23 03:33:00,
2013-07-22 23:43:00,76.0,74.0,30.07,SSW,198,0.0,0.0,94,0.00,,,0.04,,2013-07-23 03:43:00,
2013-07-22 23:52:00,76.0,74.0,30.06,SSW,198,0.0,0.0,95,0.00,,,0.04,,2013-07-23 03:52:00,